Time;durP1;ratioP1;P1;durP2;ratioP2;P2;SDS_P1;SDS_P2;PMS_P1;PMS_P2;Temp;Humidity;BMP_temperature;BMP_pressure;BME280_temperature;BME280_humidity;BME280_pressure;Samples;Min_cycle;Max_cycle;Signal;HPM_P1;HPM_P2
2022/10/26 00:01:13;;;;;;;12.20;2.78;;;;;;;18.02;81.24;100523.72;5069782;28;20059;-61
2022/10/26 00:03:42;;;;;;;7.20;2.33;;;;;;;17.77;81.24;100526.78;5076213;28;20048;-60
2022/10/26 00:06:11;;;;;;;11.30;2.85;;;;;;;17.65;83.21;100526.13;5070718;28;20429;-60
2022/10/26 00:08:39;;;;;;;6.95;2.50;;;;;;;17.86;83.16;100524.59;5073093;28;20519;-60
2022/10/26 00:11:08;;;;;;;11.70;3.30;;;;;;;17.83;81.81;100516.16;5074668;28;20554;-60
2022/10/26 00:13:36;;;;;;;8.95;2.65;;;;;;;17.63;82.83;100523.72;5075704;28;20044;-60
2022/10/26 00:16:11;;;;;;;8.43;2.70;;;;;;;17.79;83.14;100521.66;5073467;28;20055;-60
2022/10/26 00:18:38;;;;;;;6.13;2.03;;;;;;;17.74;82.52;100521.97;5062791;28;20048;-61
2022/10/26 00:21:07;;;;;;;9.23;2.83;;;;;;;17.58;82.99;100521.22;5069168;28;20060;-60
2022/10/26 00:23:34;;;;;;;6.88;2.40;;;;;;;17.71;83.96;100521.88;5057585;28;20064;-61
2022/10/26 00:26:01;;;;;;;8.75;2.42;;;;;;;17.78;83.40;100522.81;5062224;28;20067;-61
2022/10/26 00:28:29;;;;;;;8.18;2.85;;;;;;;17.62;82.61;100522.09;5075577;28;20053;-61
2022/10/26 00:31:05;;;;;;;9.88;2.95;;;;;;;18.03;83.33;100517.75;5072363;28;20404;-62
2022/10/26 00:33:33;;;;;;;9.95;3.08;;;;;;;17.78;82.23;100519.25;5074390;28;20056;-59
2022/10/26 00:36:00;;;;;;;10.63;3.40;;;;;;;17.89;82.62;100515.50;5074180;28;20059;-60
2022/10/26 00:38:27;;;;;;;9.80;3.50;;;;;;;17.47;83.28;100517.38;5075831;28;20056;-60
2022/10/26 00:40:54;;;;;;;9.55;3.75;;;;;;;17.74;84.07;100524.75;5073000;28;20085;-60
2022/10/26 00:43:26;;;;;;;21.23;5.70;;;;;;;17.78;82.11;100530.41;5072676;28;20388;-60
2022/10/26 00:45:56;;;;;;;10.00;5.00;;;;;;;17.85;82.86;100525.75;5074611;28;20045;-61
2022/10/26 00:48:26;;;;;;;13.38;4.47;;;;;;;17.76;82.75;100516.84;5071698;28;20060;-60
2022/10/26 00:50:55;;;;;;;13.13;4.88;;;;;;;17.83;82.66;100516.16;5065912;28;20055;-60
2022/10/26 00:53:22;;;;;;;10.20;3.97;;;;;;;17.96;82.86;100523.19;5060711;28;20075;-61
2022/10/26 00:55:51;;;;;;;11.40;3.78;;;;;;;17.97;81.87;100519.25;5047374;28;20048;-61
2022/10/26 00:58:19;;;;;;;11.35;4.47;;;;;;;18.05;81.83;100542.47;5055215;28;20044;-60
2022/10/26 01:00:47;;;;;;;13.60;5.00;;;;;;;17.66;81.78;100538.91;5071384;28;20075;-61
2022/10/26 01:03:14;;;;;;;15.13;5.25;;;;;;;17.82;82.57;100557.16;5056235;28;20048;-61
2022/10/26 01:05:43;;;;;;;13.63;5.93;;;;;;;18.01;82.57;100558.34;5057875;28;20048;-61
2022/10/26 01:08:11;;;;;;;16.92;7.05;;;;;;;18.21;81.17;100551.56;5072675;28;20064;-60
2022/10/26 01:10:39;;;;;;;13.40;8.48;;;;;;;18.30;80.79;100571.66;5074076;28;20048;-60
2022/10/26 01:13:06;;;;;;;19.40;10.00;;;;;;;18.17;80.16;100562.66;5060025;28;20052;-61
2022/10/26 01:15:44;;;;;;;13.80;7.53;;;;;;;18.17;80.77;100564.63;5088415;28;20055;-64
2022/10/26 01:18:18;;;;;;;13.68;7.43;;;;;;;18.15;80.73;100562.19;5072570;28;20396;-61
2022/10/26 01:20:58;;;;;;;13.85;6.35;;;;;;;18.16;80.92;100569.41;5073986;28;20147;-60
2022/10/26 01:23:33;;;;;;;14.80;5.75;;;;;;;18.11;80.39;100568.91;5071151;28;20659;-60
2022/10/26 01:26:24;;;;;;;12.13;4.78;;;;;;;18.17;80.73;100576.59;5072593;28;20053;-61
2022/10/26 01:29:00;;;;;;;10.77;3.67;;;;;;;18.14;80.63;100568.16;5073996;28;20052;-61
2022/10/26 01:31:43;;;;;;;10.35;3.78;;;;;;;17.95;80.47;100566.19;5073853;28;20048;-61
2022/10/26 01:34:14;;;;;;;9.77;2.90;;;;;;;18.03;80.55;100572.72;5071169;28;20048;-61
2022/10/26 01:36:54;;;;;;;10.98;3.20;;;;;;;18.18;81.02;100571.81;5034262;28;20447;-61
2022/10/26 01:39:22;;;;;;;10.05;3.03;;;;;;;18.20;80.89;100587.00;5071738;28;20056;-61
2022/10/26 01:41:54;;;;;;;8.05;2.85;;;;;;;18.31;80.61;100576.88;5071898;28;20154;-61
2022/10/26 01:44:29;;;;;;;7.10;2.90;;;;;;;18.24;81.25;100573.13;5036849;28;20045;-61
2022/10/26 01:46:58;;;;;;;6.63;2.72;;;;;;;18.46;80.90;100580.78;5047316;28;20419;-61
2022/10/26 01:49:28;;;;;;;7.28;2.60;;;;;;;18.33;79.89;100576.50;5064716;28;20049;-60
2022/10/26 01:51:55;;;;;;;9.70;2.70;;;;;;;18.34;80.57;100578.13;5067836;28;20041;-60
2022/10/26 01:54:22;;;;;;;7.93;2.63;;;;;;;18.38;80.78;100581.78;5053596;28;20432;-60
2022/10/26 01:56:53;;;;;;;7.78;2.70;;;;;;;18.35;80.61;100591.69;5063725;28;20055;-61
2022/10/26 01:59:39;;;;;;;10.30;2.47;;;;;;;18.37;80.47;100569.03;5074033;28;20132;-60
2022/10/26 02:02:18;;;;;;;9.43;2.75;;;;;;;18.32;81.09;100589.66;5070896;28;20068;-60
2022/10/26 02:04:48;;;;;;;7.97;2.57;;;;;;;18.36;80.42;100596.09;5058614;28;20049;-60
2022/10/26 02:07:35;;;;;;;8.82;2.47;;;;;;;18.44;80.48;100597.91;5060043;28;20292;-61
2022/10/26 02:10:21;;;;;;;11.15;3.38;;;;;;;18.38;80.28;100604.91;5053784;28;20052;-61
2022/10/26 02:12:58;;;;;;;9.20;2.42;;;;;;;18.58;80.23;100605.72;5065402;28;20041;-61
2022/10/26 02:15:26;;;;;;;7.30;2.40;;;;;;;18.55;79.87;100609.25;5072922;28;20480;-61
2022/10/26 02:17:58;;;;;;;7.55;2.22;;;;;;;18.46;80.01;100615.03;5057354;28;20377;-61
2022/10/26 02:20:29;;;;;;;9.35;2.95;;;;;;;18.56;80.28;100602.50;5055450;28;20049;-61
2022/10/26 02:22:57;;;;;;;5.13;1.83;;;;;;;18.50;79.96;100601.97;5071025;28;20048;-61
2022/10/26 02:25:31;;;;;;;10.15;2.13;;;;;;;18.58;79.58;100598.16;5058065;28;20125;-61
2022/10/26 02:28:07;;;;;;;7.65;2.00;;;;;;;18.68;79.15;100599.53;5055858;28;20057;-61
2022/10/26 02:30:35;;;;;;;7.15;1.90;;;;;;;18.65;79.60;100603.06;5055165;28;20064;-61
2022/10/26 02:33:03;;;;;;;7.88;2.05;;;;;;;18.78;79.19;100622.06;5067271;28;20044;-60
2022/10/26 02:35:34;;;;;;;8.60;2.40;;;;;;;18.80;79.03;100616.09;5054490;28;20503;-61
2022/10/26 02:38:04;;;;;;;10.93;2.33;;;;;;;18.90;78.16;100601.53;5072524;28;20041;-61
2022/10/26 02:40:31;;;;;;;;;;;;;;;18.73;78.16;100608.41;5055824;28;20052;-61
2022/10/26 02:43:04;;;;;;;6.70;2.05;;;;;;;18.80;78.88;100614.13;5054931;28;19920;-60
2022/10/26 02:45:36;;;;;;;10.45;2.35;;;;;;;18.85;78.46;100613.00;5076037;28;20053;-61
2022/10/26 02:48:04;;;;;;;7.13;2.17;;;;;;;18.86;77.79;100614.63;5042365;28;20385;-61
2022/10/26 02:50:43;;;;;;;8.00;2.75;;;;;;;18.85;77.88;100599.84;5059974;28;20060;-61
2022/10/26 02:53:32;;;;;;;5.07;2.30;;;;;;;18.93;77.40;100606.38;5076964;28;20056;-61
2022/10/26 02:56:03;;;;;;;5.55;1.90;;;;;;;19.01;77.08;100610.91;5075831;28;20053;-60
2022/10/26 02:58:35;;;;;;;7.00;2.15;;;;;;;18.92;76.89;100608.34;5067923;28;20049;-61
2022/10/26 03:01:02;;;;;;;5.93;2.10;;;;;;;19.05;76.55;100597.81;5074821;28;20044;-60
2022/10/26 03:03:29;;;;;;;7.43;2.08;;;;;;;19.16;76.51;100598.00;5076577;28;20048;-61
2022/10/26 03:05:57;;;;;;;6.60;2.17;;;;;;;19.15;75.95;100599.16;5075211;28;20613;-61
2022/10/26 03:08:24;;;;;;;5.32;1.88;;;;;;;19.13;76.21;100596.75;5057525;28;20064;-61
2022/10/26 03:10:51;;;;;;;7.60;2.10;;;;;;;19.05;76.72;100597.81;5060707;28;20052;-61
2022/10/26 03:13:19;;;;;;;10.25;2.05;;;;;;;19.13;76.64;100609.88;5075347;28;20052;-61
2022/10/26 03:15:46;;;;;;;7.90;2.30;;;;;;;19.07;76.54;100607.41;5075780;28;20044;-60
2022/10/26 03:18:13;;;;;;;9.57;2.28;;;;;;;19.09;76.67;100610.63;5059255;28;20060;-61
2022/10/26 03:20:43;;;;;;;7.53;2.38;;;;;;;19.09;76.80;100612.63;5076055;28;20056;-61
2022/10/26 03:23:11;;;;;;;7.32;2.25;;;;;;;19.02;76.52;100618.91;5073170;28;20148;-60
2022/10/26 03:25:38;;;;;;;6.88;1.98;;;;;;;19.08;76.64;100627.78;5073035;28;20484;-61
2022/10/26 03:28:06;;;;;;;6.53;2.03;;;;;;;19.02;76.84;100634.84;5071777;28;20052;-61
2022/10/26 03:30:33;;;;;;;9.05;2.55;;;;;;;19.00;77.26;100631.63;5075279;28;20053;-61
2022/10/26 03:33:00;;;;;;;9.98;2.35;;;;;;;18.78;76.79;100630.44;5059431;28;20049;-61
2022/10/26 03:35:27;;;;;;;5.45;2.35;;;;;;;19.03;77.08;100633.66;5056937;28;20056;-61
2022/10/26 03:37:55;;;;;;;7.38;2.30;;;;;;;18.96;77.33;100642.72;5076601;28;20526;-60
2022/10/26 03:40:22;;;;;;;8.02;2.25;;;;;;;19.04;76.51;100640.84;5073211;28;20056;-61
2022/10/26 03:42:49;;;;;;;8.90;1.77;;;;;;;19.08;76.64;100645.34;5060257;28;20045;-61
2022/10/26 03:45:17;;;;;;;8.35;2.40;;;;;;;19.04;76.56;100649.22;5055208;28;20049;-61
2022/10/26 03:47:45;;;;;;;10.98;2.30;;;;;;;19.04;77.01;100657.59;5076333;28;20056;-61
2022/10/26 03:50:14;;;;;;;5.38;2.00;;;;;;;19.02;77.00;100657.97;5075198;28;20040;-61
2022/10/26 03:52:42;;;;;;;8.05;2.00;;;;;;;18.98;77.04;100673.06;5075905;28;20067;-61
2022/10/26 03:55:09;;;;;;;12.73;2.38;;;;;;;18.93;77.65;100676.16;5071901;28;20041;-61
2022/10/26 03:57:43;;;;;;;9.45;2.22;;;;;;;18.73;77.60;100678.16;5073866;28;20388;-61
2022/10/26 04:00:16;;;;;;;7.53;2.00;;;;;;;18.73;77.81;100685.72;5073583;28;20053;-61
2022/10/26 04:02:48;;;;;;;10.07;2.40;;;;;;;18.81;77.59;100695.88;5074557;28;20059;-61
2022/10/26 04:05:16;;;;;;;6.22;2.28;;;;;;;18.83;76.39;100676.75;5074228;28;20048;-61
2022/10/26 04:07:43;;;;;;;4.22;1.92;;;;;;;18.89;77.61;100695.63;5075353;28;20063;-62
2022/10/26 04:10:10;;;;;;;8.95;2.05;;;;;;;19.00;75.67;100685.44;5075563;28;20063;-61
2022/10/26 04:12:38;;;;;;;8.38;2.03;;;;;;;19.05;76.19;100689.94;5075051;28;20052;-60
2022/10/26 04:15:06;;;;;;;6.45;1.77;;;;;;;18.98;76.85;100696.22;5075260;28;20509;-60
2022/10/26 04:17:33;;;;;;;5.15;1.83;;;;;;;18.87;77.52;100695.19;5073383;28;20374;-60
2022/10/26 04:20:01;;;;;;;6.20;1.90;;;;;;;18.81;77.28;100705.03;5075867;28;20055;-60
2022/10/26 04:22:28;;;;;;;5.68;1.85;;;;;;;18.88;76.89;100704.38;5074575;28;20051;-60
2022/10/26 04:24:55;;;;;;;8.57;2.25;;;;;;;18.73;76.65;100706.06;5071079;28;20052;-60
2022/10/26 04:27:22;;;;;;;5.38;1.70;;;;;;;18.92;76.30;100708.03;5075087;28;20049;-60
2022/10/26 04:29:50;;;;;;;6.70;1.88;;;;;;;18.85;76.81;100714.28;5075010;28;20056;-60
2022/10/26 04:32:17;;;;;;;7.43;1.88;;;;;;;18.82;76.36;100717.81;5074059;28;20277;-60
2022/10/26 04:34:44;;;;;;;8.98;2.55;;;;;;;18.66;77.00;100721.84;5090041;28;20064;-61
2022/10/26 04:37:11;;;;;;;7.60;2.25;;;;;;;18.64;77.46;100729.78;5074803;28;20059;-61
2022/10/26 04:39:39;;;;;;;10.27;2.00;;;;;;;18.67;77.73;100731.84;5061491;28;20045;-60
2022/10/26 04:42:06;;;;;;;6.07;2.15;;;;;;;18.71;77.59;100735.50;5073566;28;20071;-60
2022/10/26 04:44:33;;;;;;;5.65;1.98;;;;;;;18.69;77.60;100743.47;5061394;28;20064;-61
2022/10/26 04:47:00;;;;;;;11.25;2.55;;;;;;;18.66;77.60;100749.75;5068199;28;20045;-60
2022/10/26 04:49:28;;;;;;;7.28;2.30;;;;;;;18.64;77.09;100754.88;5063051;28;20053;-61
2022/10/26 04:51:55;;;;;;;10.38;2.38;;;;;;;18.51;77.90;100753.44;5068185;28;20070;-60
2022/10/26 04:54:22;;;;;;;5.30;1.98;;;;;;;18.58;78.42;100762.78;5063991;28;20405;-61
2022/10/26 04:56:50;;;;;;;6.75;1.90;;;;;;;18.50;78.62;100765.75;5072813;28;20063;-61
2022/10/26 04:59:17;;;;;;;9.68;2.33;;;;;;;18.53;78.52;100779.78;5063283;28;20499;-61
2022/10/26 05:01:44;;;;;;;10.85;2.50;;;;;;;18.55;78.25;100777.44;5069116;28;20048;-61
2022/10/26 05:04:12;;;;;;;9.98;2.47;;;;;;;18.57;78.61;100779.84;5067774;28;20492;-61
2022/10/26 05:06:39;;;;;;;10.13;2.15;;;;;;;18.44;78.12;100786.75;5055781;28;20060;-61
2022/10/26 05:09:06;;;;;;;8.23;2.40;;;;;;;18.49;78.46;100778.91;5074744;28;20053;-60
2022/10/26 05:11:34;;;;;;;10.45;2.53;;;;;;;18.45;78.70;100785.56;5071415;28;20071;-61
2022/10/26 05:14:01;;;;;;;7.15;2.10;;;;;;;18.51;78.72;100790.50;5073455;28;20055;-61
2022/10/26 05:16:28;;;;;;;10.93;2.78;;;;;;;18.39;78.41;100795.38;5070206;28;20041;-61
2022/10/26 05:18:56;;;;;;;6.97;1.92;;;;;;;18.42;79.14;100792.69;5073193;28;20048;-60
2022/10/26 05:21:23;;;;;;;10.85;2.22;;;;;;;18.33;78.37;100791.22;5065856;28;20060;-61
2022/10/26 05:23:52;;;;;;;9.13;2.35;;;;;;;18.51;79.05;100798.06;5063497;28;20052;-61
2022/10/26 05:26:21;;;;;;;10.13;2.00;;;;;;;18.61;78.08;100808.63;5072680;28;20052;-62
2022/10/26 05:28:50;;;;;;;7.00;2.30;;;;;;;18.57;78.47;100799.38;5074779;28;20302;-61
2022/10/26 05:31:17;;;;;;;6.80;1.90;;;;;;;18.50;78.15;100810.38;5070082;28;20052;-61
2022/10/26 05:33:48;;;;;;;7.22;2.38;;;;;;;18.42;78.86;100816.97;5074678;28;20052;-60
2022/10/26 05:36:17;;;;;;;8.02;2.40;;;;;;;18.36;78.99;100822.00;5070235;28;20055;-61
2022/10/26 05:38:44;;;;;;;11.15;2.50;;;;;;;18.28;79.41;100825.78;5074582;28;20518;-62
2022/10/26 05:41:11;;;;;;;12.40;2.85;;;;;;;18.39;79.33;100834.41;5069290;28;20044;-61
2022/10/26 05:43:39;;;;;;;6.97;2.00;;;;;;;18.21;79.41;100833.16;5072283;28;20052;-61
2022/10/26 05:46:06;;;;;;;12.20;2.42;;;;;;;18.18;79.73;100845.06;5062122;28;20057;-61
2022/10/26 05:48:33;;;;;;;7.30;2.50;;;;;;;18.17;79.82;100852.59;5070665;28;20045;-61
2022/10/26 05:51:00;;;;;;;7.13;2.13;;;;;;;18.26;80.15;100846.84;5064114;28;20123;-61
2022/10/26 05:53:28;;;;;;;13.00;2.70;;;;;;;18.23;79.64;100858.72;5074925;28;20048;-61
2022/10/26 05:55:55;;;;;;;9.77;2.25;;;;;;;18.23;80.02;100858.72;5072633;28;20051;-62
2022/10/26 05:58:23;;;;;;;8.98;2.30;;;;;;;18.15;79.86;100856.94;5074451;28;20490;-61
2022/10/26 06:01:00;;;;;;;14.45;2.50;;;;;;;18.18;80.08;100853.41;5073558;28;20055;-61
2022/10/26 06:04:08;;;;;;;9.75;2.30;;;;;;;18.10;79.82;100857.22;5073172;28;20404;-62
2022/10/26 06:06:39;;;;;;;10.60;2.63;;;;;;;18.02;79.89;100858.19;5072800;28;20055;-62
2022/10/26 06:09:09;;;;;;;6.25;2.60;;;;;;;18.01;80.94;100860.16;5056409;28;20057;-60
2022/10/26 06:11:37;;;;;;;8.32;2.72;;;;;;;18.01;80.86;100848.22;5062849;28;20052;-60
2022/10/26 06:14:06;;;;;;;13.40;2.60;;;;;;;18.03;80.63;100859.81;5052974;28;20060;-62
2022/10/26 06:17:01;;;;;;;12.43;2.47;;;;;;;18.11;80.52;100865.22;5056607;28;20067;-62
2022/10/26 06:19:47;;;;;;;10.32;2.45;;;;;;;18.08;79.92;100854.75;5056068;28;20056;-61
2022/10/26 06:22:45;;;;;;;11.38;2.65;;;;;;;17.98;79.86;100853.34;5075637;28;20120;-61
2022/10/26 06:25:51;;;;;;;11.57;2.50;;;;;;;17.94;80.58;100863.56;5076516;28;20396;-62
2022/10/26 06:28:32;;;;;;;12.55;2.95;;;;;;;17.85;80.78;100876.88;5063866;28;20048;-61
2022/10/26 06:30:59;;;;;;;10.35;2.28;;;;;;;17.77;81.75;100874.25;5067743;28;20452;-61
2022/10/26 06:33:28;;;;;;;7.22;2.58;;;;;;;17.78;82.57;100885.03;5076448;28;20048;-61
2022/10/26 06:36:15;;;;;;;9.85;3.00;;;;;;;17.75;81.77;100893.31;5075521;28;20541;-61
2022/10/26 06:38:43;;;;;;;16.27;4.22;;;;;;;17.57;81.67;100897.59;5059261;28;20052;-60
2022/10/26 06:41:17;;;;;;;9.65;3.60;;;;;;;17.54;83.99;100903.91;5069196;28;20056;-60
2022/10/26 06:43:45;;;;;;;11.23;3.50;;;;;;;17.75;83.79;100908.06;5074400;28;20503;-61
2022/10/26 06:46:30;;;;;;;14.95;8.00;;;;;;;17.72;82.53;100913.53;5076385;28;20059;-61
2022/10/26 06:49:13;;;;;;;19.02;8.18;;;;;;;17.71;83.04;100912.72;5037383;28;20064;-63
2022/10/26 06:51:46;;;;;;;14.63;4.57;;;;;;;17.74;83.34;100914.00;5073729;28;20052;-61
2022/10/26 06:54:50;;;;;;;11.60;3.38;;;;;;;17.83;80.15;100932.19;5077467;28;20049;-63
2022/10/26 06:57:26;;;;;;;10.40;3.42;;;;;;;17.81;81.89;100947.63;5075395;28;20048;-62
2022/10/26 06:59:59;;;;;;;9.65;3.17;;;;;;;17.68;82.10;100948.84;5055762;28;20059;-63
2022/10/26 07:02:26;;;;;;;14.10;4.18;;;;;;;17.48;82.24;100947.91;5066427;28;20048;-60
2022/10/26 07:04:54;;;;;;;19.00;3.95;;;;;;;17.71;84.34;100953.72;5073647;28;20049;-61
2022/10/26 07:07:23;;;;;;;15.85;4.30;;;;;;;17.62;82.78;100947.47;5074884;28;20071;-61
2022/10/26 07:09:51;;;;;;;27.98;4.65;;;;;;;17.59;82.90;100962.91;5076313;28;20048;-60
2022/10/26 07:12:18;;;;;;;11.63;3.88;;;;;;;17.82;84.54;100954.81;5074548;28;20048;-60
2022/10/26 07:14:45;;;;;;;14.55;3.92;;;;;;;17.61;82.56;100957.81;5069658;28;20056;-61
2022/10/26 07:17:13;;;;;;;12.35;3.47;;;;;;;17.70;82.62;100957.66;5067332;28;20051;-60
2022/10/26 07:19:43;;;;;;;12.77;4.22;;;;;;;17.56;81.59;100971.16;5064315;28;20701;-61
2022/10/26 07:22:10;;;;;;;16.25;4.68;;;;;;;17.58;81.63;100975.25;5076007;28;20048;-60
2022/10/26 07:24:38;;;;;;;17.65;4.35;;;;;;;17.58;81.62;100968.84;5072195;28;20048;-61
2022/10/26 07:27:05;;;;;;;15.88;3.67;;;;;;;17.61;82.34;100988.44;5070760;28;20056;-61
2022/10/26 07:29:34;;;;;;;13.18;4.68;;;;;;;17.81;81.64;100992.22;5081474;28;20071;-62
2022/10/26 07:32:01;;;;;;;13.63;4.00;;;;;;;17.83;81.27;100999.06;5078859;28;20052;-60
2022/10/26 07:34:29;;;;;;;9.93;3.38;;;;;;;17.85;80.54;101002.28;5074195;28;20381;-62
2022/10/26 07:36:58;;;;;;;13.60;3.22;;;;;;;17.59;80.75;101007.50;5078081;28;20063;-61
2022/10/26 07:39:25;;;;;;;13.88;4.15;;;;;;;17.90;81.37;101012.38;5073150;28;20040;-60
2022/10/26 07:41:52;;;;;;;10.85;4.03;;;;;;;17.81;81.42;101018.09;5070605;28;20040;-59
2022/10/26 07:44:20;;;;;;;11.30;3.78;;;;;;;17.84;80.79;101014.59;5078906;28;20052;-60
2022/10/26 07:46:47;;;;;;;29.02;15.27;;;;;;;17.98;80.88;101022.56;5077091;28;20375;-59
2022/10/26 07:49:14;;;;;;;14.55;6.45;;;;;;;18.09;80.50;101023.66;5083086;28;20047;-59
2022/10/26 07:51:45;;;;;;;16.45;4.47;;;;;;;18.27;79.87;101035.31;5079133;28;20044;-60
2022/10/26 07:54:12;;;;;;;23.33;4.68;;;;;;;18.32;79.18;101024.72;5088665;28;20040;-60
2022/10/26 07:56:40;;;;;;;8.95;3.55;;;;;;;18.33;79.02;101031.88;5065351;28;20048;-59
2022/10/26 07:59:07;;;;;;;9.50;3.25;;;;;;;18.39;78.92;101029.66;5092659;28;21500;-60
2022/10/26 08:01:35;;;;;;;11.50;3.85;;;;;;;18.39;79.21;101041.63;5079527;28;20056;-61
2022/10/26 08:04:02;;;;;;;15.25;3.45;;;;;;;18.43;78.41;101041.75;5084252;28;20059;-61
2022/10/26 08:06:30;;;;;;;10.25;3.00;;;;;;;18.55;78.09;101047.25;5079753;28;20454;-61
2022/10/26 08:08:57;;;;;;;14.20;3.30;;;;;;;18.76;76.82;101042.19;5091324;28;20043;-60
2022/10/26 08:11:24;;;;;;;14.10;3.45;;;;;;;18.53;76.54;101053.16;5080815;28;20146;-60
2022/10/26 08:13:52;;;;;;;10.80;3.20;;;;;;;18.44;78.06;101057.31;5085094;28;20053;-60
2022/10/26 08:16:20;;;;;;;12.02;3.50;;;;;;;18.48;79.19;101059.00;5075327;28;20040;-59
2022/10/26 08:18:49;;;;;;;13.25;3.63;;;;;;;18.56;78.92;101054.44;5085628;28;20040;-61
2022/10/26 08:21:16;;;;;;;14.90;3.65;;;;;;;18.62;79.93;101061.41;5082941;28;20048;-58
2022/10/26 08:24:02;;;;;;;15.30;6.10;;;;;;;18.52;79.16;101073.88;5082827;28;20057;-59
2022/10/26 08:26:29;;;;;;;14.93;5.93;;;;;;;18.60;79.66;101069.31;5076132;28;20056;-60
2022/10/26 08:28:56;;;;;;;17.70;5.40;;;;;;;18.69;79.34;101078.31;5089979;28;20593;-56
2022/10/26 08:31:24;;;;;;;19.58;8.95;;;;;;;18.70;79.15;101074.34;5065302;28;20048;-59
2022/10/26 08:33:51;;;;;;;13.82;5.05;;;;;;;18.86;77.75;101080.75;5073895;28;20385;-57
2022/10/26 08:36:25;;;;;;;14.13;4.20;;;;;;;19.09;76.54;101067.75;5071389;28;20056;-60
2022/10/26 08:38:53;;;;;;;13.32;4.03;;;;;;;18.97;77.11;101071.47;5071137;28;20052;-58
2022/10/26 08:41:30;;;;;;;11.70;4.28;;;;;;;18.87;77.49;101065.59;5071938;28;20044;-60
2022/10/26 08:44:02;;;;;;;15.18;4.97;;;;;;;19.14;76.60;101070.28;5072106;28;20147;-60
2022/10/26 08:46:34;;;;;;;14.77;5.38;;;;;;;19.05;76.82;101083.63;5060182;28;20051;-59
2022/10/26 08:49:07;;;;;;;17.25;4.85;;;;;;;19.09;76.62;101081.72;5074060;28;20483;-59
2022/10/26 08:51:36;;;;;;;17.63;3.80;;;;;;;18.86;75.63;101081.53;5066953;28;20048;-60
2022/10/26 08:54:12;;;;;;;11.85;4.10;;;;;;;19.11;76.25;101075.78;5071479;28;20127;-59
2022/10/26 08:56:46;;;;;;;13.85;4.07;;;;;;;19.22;76.30;101085.22;5073254;28;20056;-60
2022/10/26 08:59:47;;;;;;;13.25;4.35;;;;;;;19.33;75.40;101091.91;5073979;28;20036;-58
2022/10/26 09:02:16;;;;;;;14.32;3.50;;;;;;;19.51;74.22;101091.13;5071127;28;20048;-61
2022/10/26 09:04:43;;;;;;;12.68;3.53;;;;;;;19.43;74.17;101103.34;5076620;28;20040;-61
2022/10/26 09:07:23;;;;;;;13.75;3.28;;;;;;;19.50;74.41;101102.69;5076133;28;20052;-60
2022/10/26 09:10:16;;;;;;;12.15;3.45;;;;;;;19.66;73.83;101101.47;5072880;28;20173;-62
2022/10/26 09:12:56;;;;;;;9.75;2.70;;;;;;;19.64;73.67;101108.59;5070567;28;20056;-60
2022/10/26 09:15:29;;;;;;;10.32;3.08;;;;;;;19.48;74.44;101110.63;5066637;28;20045;-60
2022/10/26 09:18:04;;;;;;;12.27;3.30;;;;;;;19.49;74.78;101106.66;5062836;28;20052;-62
2022/10/26 09:20:47;;;;;;;11.68;2.20;;;;;;;19.55;73.96;101122.78;5063711;28;20064;-60
2022/10/26 09:23:42;;;;;;;10.32;2.58;;;;;;;19.72;72.57;101111.19;5069141;28;20060;-60
2022/10/26 09:26:13;;;;;;;10.00;3.10;;;;;;;19.63;72.82;101121.75;5069729;28;20610;-60
2022/10/26 09:28:43;;;;;;;14.35;5.20;;;;;;;19.63;72.41;101113.38;5069633;28;20045;-60
2022/10/26 09:31:14;;;;;;;10.93;3.10;;;;;;;19.73;71.74;101114.81;5069217;28;20048;-60
2022/10/26 09:33:41;;;;;;;10.40;2.50;;;;;;;19.75;71.34;101124.44;5072900;28;20052;-61
2022/10/26 09:36:17;;;;;;;9.02;2.55;;;;;;;19.70;71.45;101123.94;5070053;28;20044;-59
2022/10/26 09:38:50;;;;;;;7.85;2.38;;;;;;;19.65;71.21;101122.22;5068567;28;20122;-62
2022/10/26 09:41:40;;;;;;;9.32;2.58;;;;;;;19.89;70.71;101126.75;5048967;28;20051;-64
2022/10/26 09:44:36;;;;;;;9.73;2.72;;;;;;;19.95;69.36;101137.28;5071082;28;20057;-61
2022/10/26 09:47:11;;;;;;;8.20;2.33;;;;;;;19.77;69.76;101136.06;5083556;28;20064;-60
2022/10/26 09:50:14;;;;;;;9.18;2.63;;;;;;;20.15;69.14;101138.88;5062907;28;20051;-60
2022/10/26 09:52:41;;;;;;;10.20;2.40;;;;;;;20.15;69.18;101149.28;5072114;28;20656;-62
2022/10/26 09:55:12;;;;;;;11.13;1.90;;;;;;;20.26;68.80;101153.13;5080165;28;20072;-61
2022/10/26 09:57:42;;;;;;;8.23;2.05;;;;;;;20.38;68.40;101157.78;5069713;28;20926;-59
2022/10/26 10:00:15;;;;;;;11.07;2.25;;;;;;;20.17;68.65;101153.34;5066740;28;20064;-61
2022/10/26 10:02:44;;;;;;;9.73;2.10;;;;;;;20.23;69.14;101167.03;5071494;28;20064;-60
2022/10/26 10:05:24;;;;;;;9.77;2.22;;;;;;;20.14;69.11;101158.84;5065172;28;20174;-61
2022/10/26 10:08:18;;;;;;;15.25;1.77;;;;;;;20.18;68.94;101162.56;5070113;28;20055;-61
2022/10/26 10:11:06;;;;;;;10.57;2.30;;;;;;;20.29;68.87;101171.19;5071186;28;20388;-61
2022/10/26 10:13:36;;;;;;;6.85;2.20;;;;;;;20.38;69.03;101175.38;5068576;28;20127;-60
2022/10/26 10:16:19;;;;;;;13.00;4.30;;;;;;;20.42;67.62;101181.03;5070461;28;20151;-59
2022/10/26 10:18:55;;;;;;;8.27;1.95;;;;;;;20.31;69.01;101180.03;5069076;28;20047;-62
2022/10/26 10:21:37;;;;;;;8.90;2.42;;;;;;;20.11;68.91;101176.38;5052056;28;20048;-60
2022/10/26 10:24:22;;;;;;;12.38;3.38;;;;;;;20.33;69.54;101183.28;5071859;28;20037;-64
2022/10/26 10:27:03;;;;;;;9.02;2.25;;;;;;;20.25;68.81;101184.28;5070699;28;20045;-60
2022/10/26 10:29:33;;;;;;;8.68;2.40;;;;;;;20.41;68.80;101196.22;5070771;28;20044;-63
2022/10/26 10:32:16;;;;;;;9.80;2.80;;;;;;;20.51;68.21;101195.63;5063605;28;20048;-61
2022/10/26 10:34:48;;;;;;;10.02;2.33;;;;;;;20.54;69.21;101197.72;5069197;28;20032;-63
2022/10/26 10:37:26;;;;;;;10.52;2.85;;;;;;;20.70;68.70;101204.00;5071718;28;20617;-64
2022/10/26 10:40:01;;;;;;;10.93;4.85;;;;;;;20.64;67.74;101209.09;5072696;28;20049;-63
2022/10/26 10:42:37;;;;;;;14.85;5.90;;;;;;;20.48;68.57;101205.59;5070448;28;20056;-64
2022/10/26 10:45:05;;;;;;;16.80;6.85;;;;;;;20.58;68.82;101205.00;5074006;28;20056;-62
2022/10/26 10:47:34;;;;;;;13.35;3.90;;;;;;;20.82;69.36;101204.66;5069953;28;20045;-60
2022/10/26 10:50:06;;;;;;;8.75;3.50;;;;;;;20.89;68.15;101206.78;5054465;28;20051;-62
2022/10/26 10:52:34;;;;;;;8.90;2.47;;;;;;;20.85;67.60;101203.13;5071950;28;20059;-59
2022/10/26 10:55:13;;;;;;;13.73;3.65;;;;;;;20.86;66.42;101199.94;5072626;28;20063;-60
2022/10/26 10:57:44;;;;;;;7.93;3.13;;;;;;;20.80;67.13;101207.03;5083324;28;20044;-61
2022/10/26 11:00:11;;;;;;;;;;;;;;;20.98;66.54;101213.81;5072217;28;20040;-61
2022/10/26 11:02:40;;;;;;;11.18;2.75;;;;;;;21.00;65.97;101211.47;5071728;28;19920;-62
2022/10/26 11:05:14;;;;;;;12.93;2.78;;;;;;;21.06;66.08;101215.56;5074521;28;20565;-61
2022/10/26 11:07:52;;;;;;;9.68;2.78;;;;;;;20.92;66.60;101222.88;5073446;28;20056;-64
2022/10/26 11:10:22;;;;;;;11.02;2.72;;;;;;;20.92;66.06;101209.66;5072542;28;20493;-65
2022/10/26 11:13:02;;;;;;;7.18;2.13;;;;;;;21.03;66.79;101218.28;5074395;28;20067;-64
2022/10/26 11:15:32;;;;;;;10.32;2.55;;;;;;;21.07;67.01;101221.97;5073735;28;20048;-62
2022/10/26 11:18:15;;;;;;;8.63;2.38;;;;;;;21.01;66.83;101220.66;5065241;28;20044;-63
2022/10/26 11:20:49;;;;;;;10.50;4.00;;;;;;;21.07;67.30;101230.38;5069367;28;20535;-63
2022/10/26 11:23:21;;;;;;;12.63;4.05;;;;;;;21.00;67.07;101225.47;5070597;28;20049;-63
2022/10/26 11:25:52;;;;;;;11.63;3.15;;;;;;;20.91;67.09;101227.66;5072006;28;20415;-60
2022/10/26 11:28:50;;;;;;;7.80;2.90;;;;;;;21.00;67.37;101239.47;5076571;28;20622;-62
2022/10/26 11:31:28;;;;;;;9.93;2.97;;;;;;;21.05;66.85;101225.16;5074572;28;20460;-62
2022/10/26 11:34:27;;;;;;;8.57;2.70;;;;;;;21.38;65.47;101227.34;5073110;28;20049;-62
2022/10/26 11:37:01;;;;;;;10.05;2.28;;;;;;;21.24;65.74;101227.09;5072150;28;20056;-63
2022/10/26 11:39:37;;;;;;;10.93;2.47;;;;;;;21.07;65.34;101228.41;5082411;28;20036;-63
2022/10/26 11:42:07;;;;;;;11.98;3.08;;;;;;;21.18;65.74;101237.00;5074032;28;20412;-63
2022/10/26 11:45:00;;;;;;;7.60;2.20;;;;;;;21.14;65.95;101236.13;5072673;28;20044;-63